Time;durP1;ratioP1;P1;durP2;ratioP2;P2;SDS_P1;SDS_P2;PMS_P1;PMS_P2;Temp;Humidity;BMP_temperature;BMP_pressure;BME280_temperature;BME280_humidity;BME280_pressure;Samples;Min_cycle;Max_cycle;Signal;HPM_P1;HPM_P2
2023/05/07 00:01:19;;;;;;;;;;;14.60;99.90;;;;;;5131553;27;19919;-73
2023/05/07 00:03:44;;;;;;;;;;;14.50;99.90;;;;;;5131433;27;20280;-73
2023/05/07 00:06:12;;;;;;;;;;;14.50;99.90;;;;;;5132834;27;20002;-76
2023/05/07 00:08:38;;;;;;;;;;;14.50;99.90;;;;;;5152641;27;19919;-73
2023/05/07 00:11:03;;;;;;;;;;;14.50;99.90;;;;;;5136861;27;19925;-73
2023/05/07 00:13:35;;;;;;;;;;;14.50;99.90;;;;;;5131002;28;19926;-74
2023/05/07 00:16:03;;;;;;;;;;;14.40;99.90;;;;;;5113662;28;19919;-73
2023/05/07 00:18:29;;;;;;;;;;;14.40;99.90;;;;;;5130899;28;19945;-73
2023/05/07 00:20:55;;;;;;;;;;;14.40;99.90;;;;;;5145276;27;20360;-73
2023/05/07 00:23:20;;;;;;;;;;;14.40;99.90;;;;;;5148289;27;20424;-73
2023/05/07 00:25:46;;;;;;;;;;;14.40;99.90;;;;;;5119509;27;20344;-73
2023/05/07 00:28:11;;;;;;;;;;;14.30;99.90;;;;;;5151338;27;19929;-73
2023/05/07 00:30:37;;;;;;;;;;;14.90;99.90;;;;;;5149642;27;20383;-73
2023/05/07 00:33:02;;;;;;;;;;;14.30;99.90;;;;;;5136773;27;19925;-73
2023/05/07 00:35:29;;;;;;;;;;;14.20;99.90;;;;;;5155851;27;19923;-74
2023/05/07 00:37:54;;;;;;;;;;;14.10;99.90;;;;;;5156878;27;20396;-74
2023/05/07 00:40:20;;;;;;;;;;;14.10;99.90;;;;;;5156345;27;19919;-74
2023/05/07 00:42:46;;;;;;;;;;;14.00;99.90;;;;;;5137183;27;20364;-73
2023/05/07 00:45:13;;;;;;;;;;;14.00;99.90;;;;;;5156847;27;19925;-73
2023/05/07 00:47:39;;;;;;;;;;;14.00;99.90;;;;;;5155721;27;19919;-74
2023/05/07 00:50:05;;;;;;;;;;;13.90;99.90;;;;;;5138295;27;19919;-73
2023/05/07 00:52:31;;;;;;;;;;;13.90;99.90;;;;;;5153704;27;19926;-73
2023/05/07 00:54:56;;;;;;;;;;;13.90;99.90;;;;;;5156531;27;19927;-74
2023/05/07 00:57:23;;;;;;;;;;;13.80;99.90;;;;;;5151349;27;19974;-74
2023/05/07 00:59:50;;;;;;;;;;;13.80;99.90;;;;;;5118771;27;20013;-73
2023/05/07 01:02:16;;;;;;;;;;;13.80;99.90;;;;;;5155530;27;19923;-76
2023/05/07 01:04:42;;;;;;;;;;;13.70;99.90;;;;;;5156306;27;20406;-73
2023/05/07 01:07:07;;;;;;;;;;;13.70;99.90;;;;;;5137495;27;19970;-73
2023/05/07 01:09:35;;;;;;;;;;;13.70;99.90;;;;;;5137548;27;19919;-73
2023/05/07 01:12:00;;;;;;;;;;;13.70;99.90;;;;;;5155572;27;19929;-74
2023/05/07 01:14:26;;;;;;;;;;;13.70;99.90;;;;;;5151937;27;20001;-74
2023/05/07 01:16:53;;;;;;;;;;;13.60;99.90;;;;;;5137234;27;19923;-74
2023/05/07 01:19:19;;;;;;;;;;;13.60;99.90;;;;;;5155342;27;19923;-76
2023/05/07 01:21:48;;;;;;;;;;;13.60;99.90;;;;;;5149648;27;19923;-73
2023/05/07 01:24:14;;;;;;;;;;;13.50;99.90;;;;;;5135393;27;19926;-73
2023/05/07 01:26:39;;;;;;;;;;;13.40;99.90;;;;;;5133738;27;19923;-73
2023/05/07 01:29:05;;;;;;;;;;;13.40;99.90;;;;;;5117068;27;19930;-73
2023/05/07 01:31:32;;;;;;;;;;;13.40;99.90;;;;;;5145536;27;19923;-73
2023/05/07 01:33:59;;;;;;;;;;;13.30;99.90;;;;;;5155444;27;19919;-74
2023/05/07 01:36:27;;;;;;;;;;;13.30;99.90;;;;;;5151253;27;19926;-73
2023/05/07 01:38:52;;;;;;;;;;;13.20;99.90;;;;;;5137205;27;19946;-73
2023/05/07 01:41:19;;;;;;;;;;;13.20;99.90;;;;;;5154722;27;20352;-74
2023/05/07 01:43:46;;;;;;;;;;;13.20;99.90;;;;;;5144181;27;19920;-73
2023/05/07 01:46:12;;;;;;;;;;;13.20;99.90;;;;;;5134810;27;20068;-74
2023/05/07 01:48:38;;;;;;;;;;;13.20;99.90;;;;;;5133456;27;19923;-73
2023/05/07 01:51:04;;;;;;;;;;;13.10;99.90;;;;;;5142918;27;19930;-73
2023/05/07 01:53:35;;;;;;;;;;;13.10;99.90;;;;;;5154724;27;19941;-73
2023/05/07 01:56:01;;;;;;;;;;;13.10;99.90;;;;;;5155062;27;19992;-74
2023/05/07 01:58:26;;;;;;;;;;;13.00;99.90;;;;;;5145221;27;19969;-73
2023/05/07 02:00:52;;;;;;;;;;;13.00;99.90;;;;;;5136733;27;19919;-73
2023/05/07 02:03:17;;;;;;;;;;;13.00;99.90;;;;;;5134105;27;19923;-73
2023/05/07 02:05:43;;;;;;;;;;;13.00;99.90;;;;;;5115150;27;20096;-73
2023/05/07 02:08:09;;;;;;;;;;;13.00;99.90;;;;;;5134259;27;19923;-73
2023/05/07 02:10:35;;;;;;;;;;;12.90;99.90;;;;;;5147471;27;19926;-74
2023/05/07 02:13:01;;;;;;;;;;;12.90;99.90;;;;;;5135681;27;19922;-73
2023/05/07 02:15:27;;;;;;;;;;;12.90;99.90;;;;;;5154225;27;19953;-73
2023/05/07 02:18:00;;;;;;;;;;;12.90;99.90;;;;;;5139102;27;19919;-74
2023/05/07 02:20:25;;;;;;;;;;;12.90;99.90;;;;;;5133444;27;19939;-76
2023/05/07 02:22:51;;;;;;;;;;;12.90;99.90;;;;;;5134075;27;19923;-73
2023/05/07 02:25:16;;;;;;;;;;;12.90;99.90;;;;;;5150912;27;19934;-73
2023/05/07 02:27:42;;;;;;;;;;;12.80;99.90;;;;;;5150962;27;20006;-74
2023/05/07 02:30:08;;;;;;;;;;;12.80;99.90;;;;;;5133688;27;19926;-74
2023/05/07 02:32:33;;;;;;;;;;;12.80;99.90;;;;;;5132927;27;19926;-74
2023/05/07 02:34:59;;;;;;;;;;;12.70;99.90;;;;;;5115999;27;19926;-73
2023/05/07 02:37:25;;;;;;;;;;;12.70;99.90;;;;;;5103601;27;20376;-73
2023/05/07 02:39:50;;;;;;;;;;;12.70;99.90;;;;;;5154088;27;19978;-73
2023/05/07 02:42:16;;;;;;;;;;;12.80;99.90;;;;;;5135170;27;19971;-73
2023/05/07 02:44:41;;;;;;;;;;;12.70;99.90;;;;;;5153978;27;19929;-73
2023/05/07 02:47:08;;;;;;;;;;;12.70;99.90;;;;;;5153986;27;20275;-74
2023/05/07 02:49:34;;;;;;;;;;;12.70;99.90;;;;;;5153859;27;19918;-73
2023/05/07 02:51:59;;;;;;;;;;;12.60;99.90;;;;;;5135101;27;20242;-73
2023/05/07 02:54:25;;;;;;;;;;;12.60;99.90;;;;;;5151981;27;19930;-74
2023/05/07 02:56:50;;;;;;;;;;;12.60;99.90;;;;;;5152562;27;19919;-73
2023/05/07 02:59:16;;;;;;;;;;;12.60;99.90;;;;;;5135096;27;19919;-74
2023/05/07 03:01:43;;;;;;;;;;;12.60;99.90;;;;;;5152489;27;19922;-73
2023/05/07 03:04:10;;;;;;;;;;;12.60;99.90;;;;;;5135513;27;19926;-73
2023/05/07 03:06:36;;;;;;;;;;;12.60;99.90;;;;;;5152867;27;20399;-73
2023/05/07 03:09:01;;;;;;;;;;;12.60;99.90;;;;;;5140031;27;19923;-73
2023/05/07 03:11:27;;;;;;;;;;;12.60;99.90;;;;;;5132293;27;20424;-73
2023/05/07 03:13:53;;;;;;;;;;;12.60;99.90;;;;;;5097466;27;20724;-73
2023/05/07 03:16:18;;;;;;;;;;;12.60;99.90;;;;;;5133030;27;19920;-75
2023/05/07 03:18:44;;;;;;;;;;;12.60;99.90;;;;;;5131767;27;19942;-73
2023/05/07 03:21:09;;;;;;;;;;;12.50;99.90;;;;;;5133683;27;19920;-74
2023/05/07 03:23:35;;;;;;;;;;;12.50;99.90;;;;;;5151981;27;20272;-74
2023/05/07 03:26:01;;;;;;;;;;;12.50;99.90;;;;;;5136732;27;20371;-74
2023/05/07 03:28:26;;;;;;;;;;;12.50;99.90;;;;;;5132064;27;20434;-74
2023/05/07 03:30:52;;;;;;;;;;;12.50;99.90;;;;;;5131960;27;19923;-73
2023/05/07 03:33:17;;;;;;;;;;;12.50;99.90;;;;;;5132293;27;19972;-74
2023/05/07 03:35:43;;;;;;;;;;;12.50;99.90;;;;;;5113478;27;19920;-73
2023/05/07 03:38:09;;;;;;;;;;;12.50;99.90;;;;;;5150619;27;19919;-74
2023/05/07 03:40:34;;;;;;;;;;;12.50;99.90;;;;;;5134912;27;19926;-76
2023/05/07 03:43:00;;;;;;;;;;;12.50;99.90;;;;;;5132430;27;19926;-73
2023/05/07 03:45:26;;;;;;;;;;;12.50;99.90;;;;;;5143126;27;19932;-73
2023/05/07 03:47:51;;;;;;;;;;;12.50;99.90;;;;;;5113227;27;20010;-73
2023/05/07 03:50:17;;;;;;;;;;;12.50;99.90;;;;;;5114010;27;19955;-73
2023/05/07 03:52:43;;;;;;;;;;;12.40;99.90;;;;;;5126446;27;19929;-74
2023/05/07 03:55:08;;;;;;;;;;;12.40;99.90;;;;;;5153115;27;19922;-73
2023/05/07 03:57:34;;;;;;;;;;;12.40;99.90;;;;;;5136802;27;19923;-73
2023/05/07 03:59:59;;;;;;;;;;;12.40;99.90;;;;;;5131950;27;19981;-73
2023/05/07 04:02:25;;;;;;;;;;;12.40;99.90;;;;;;5113520;27;19930;-73
2023/05/07 04:04:51;;;;;;;;;;;12.40;99.90;;;;;;5131924;27;19919;-73
2023/05/07 04:07:17;;;;;;;;;;;12.30;99.90;;;;;;5132556;27;20034;-74
2023/05/07 04:09:42;;;;;;;;;;;12.30;99.90;;;;;;5151355;27;20439;-74
2023/05/07 04:12:08;;;;;;;;;;;12.30;99.90;;;;;;5151795;27;19922;-73
2023/05/07 04:14:33;;;;;;;;;;;12.30;99.90;;;;;;5135039;27;19927;-74
2023/05/07 04:16:59;;;;;;;;;;;12.30;99.90;;;;;;5131335;28;19998;-73
2023/05/07 04:19:25;;;;;;;;;;;12.40;99.90;;;;;;5131684;28;19919;-74
2023/05/07 04:21:50;;;;;;;;;;;12.40;99.90;;;;;;5130926;28;19919;-74
2023/05/07 04:24:16;;;;;;;;;;;12.30;99.90;;;;;;5132153;28;19999;-74
2023/05/07 04:26:42;;;;;;;;;;;12.40;99.90;;;;;;5130775;28;19932;-76
2023/05/07 04:29:07;;;;;;;;;;;12.30;99.90;;;;;;5131912;27;19931;-74
2023/05/07 04:31:33;;;;;;;;;;;12.30;99.90;;;;;;5148575;27;19975;-74
2023/05/07 04:33:58;;;;;;;;;;;12.40;99.90;;;;;;5143018;27;19930;-73
2023/05/07 04:36:27;;;;;;;;;;;12.30;99.90;;;;;;5130988;28;19920;-74
2023/05/07 04:38:53;;;;;;;;;;;12.30;99.90;;;;;;5131439;28;19919;-73
2023/05/07 04:41:19;;;;;;;;;;;12.30;99.90;;;;;;5131453;28;20404;-74
2023/05/07 04:43:45;;;;;;;;;;;12.40;99.90;;;;;;5142541;27;19926;-76
2023/05/07 04:46:11;;;;;;;;;;;12.30;99.90;;;;;;5134193;27;20366;-73
2023/05/07 04:48:36;;;;;;;;;;;12.40;99.90;;;;;;5151865;27;19919;-73
2023/05/07 04:51:02;;;;;;;;;;;12.40;99.90;;;;;;5151532;27;19980;-74
2023/05/07 04:53:27;;;;;;;;;;;12.40;99.90;;;;;;5150119;27;19929;-73
2023/05/07 04:55:56;;;;;;;;;;;12.40;99.90;;;;;;5151324;27;19923;-73
2023/05/07 04:58:22;;;;;;;;;;;12.40;99.90;;;;;;5139470;27;19996;-73
2023/05/07 05:00:48;;;;;;;;;;;12.40;99.90;;;;;;5136558;27;19931;-73
2023/05/07 05:03:13;;;;;;;;;;;12.40;99.90;;;;;;5133425;27;19922;-73
2023/05/07 05:05:39;;;;;;;;;;;12.40;99.90;;;;;;5133640;27;19926;-73
2023/05/07 05:08:05;;;;;;;;;;;12.40;99.90;;;;;;5151758;27;20006;-73
2023/05/07 05:10:30;;;;;;;;;;;12.40;99.90;;;;;;5152311;27;19925;-73
2023/05/07 05:12:56;;;;;;;;;;;12.40;99.90;;;;;;5132567;27;19919;-73
2023/05/07 05:15:21;;;;;;;;;;;12.40;99.90;;;;;;5133725;27;19919;-73
2023/05/07 05:17:47;;;;;;;;;;;12.40;99.90;;;;;;5151755;27;19930;-76
2023/05/07 05:20:12;;;;;;;;;;;12.40;99.90;;;;;;5155424;27;19923;-73
2023/05/07 05:22:38;;;;;;;;;;;12.40;99.90;;;;;;5155936;27;20021;-73
2023/05/07 05:25:04;;;;;;;;;;;12.40;99.90;;;;;;5155711;27;20238;-73
2023/05/07 05:27:30;;;;;;;;;;;12.40;99.90;;;;;;5134905;27;19996;-73
2023/05/07 05:29:55;;;;;;;;;;;12.40;99.90;;;;;;5151918;27;19966;-73
2023/05/07 05:32:21;;;;;;;;;;;12.40;99.90;;;;;;5154724;27;19919;-73
2023/05/07 05:34:47;;;;;;;;;;;12.50;99.90;;;;;;5155794;27;19923;-74
2023/05/07 05:37:12;;;;;;;;;;;12.50;99.90;;;;;;5153658;27;20268;-74
2023/05/07 05:39:38;;;;;;;;;;;12.50;99.90;;;;;;5135027;27;20348;-73
2023/05/07 05:42:03;;;;;;;;;;;12.50;99.90;;;;;;5133447;27;19919;-74
2023/05/07 05:44:29;;;;;;;;;;;12.50;99.90;;;;;;5134803;27;19923;-73
2023/05/07 05:46:57;;;;;;;;;;;12.50;99.90;;;;;;5150829;27;20456;-74
2023/05/07 05:49:23;;;;;;;;;;;12.60;99.90;;;;;;5136984;27;20015;-73
2023/05/07 05:51:48;;;;;;;;;;;12.60;99.90;;;;;;5154634;27;19919;-74
2023/05/07 05:54:15;;;;;;;;;;;12.60;99.90;;;;;;5134415;27;19923;-74
2023/05/07 05:56:41;;;;;;;;;;;12.60;99.90;;;;;;5130170;27;19972;-74
2023/05/07 05:59:07;;;;;;;;;;;12.70;99.90;;;;;;5134065;27;19927;-74
2023/05/07 06:01:32;;;;;;;;;;;12.70;99.90;;;;;;5134269;27;19920;-74
2023/05/07 06:03:58;;;;;;;;;;;13.70;99.90;;;;;;5133688;27;19919;-74
2023/05/07 06:06:24;;;;;;;;;;;12.80;99.90;;;;;;5136941;27;19976;-74
2023/05/07 06:08:49;;;;;;;;;;;12.80;99.90;;;;;;5137009;27;20006;-73
2023/05/07 06:11:15;;;;;;;;;;;12.80;99.90;;;;;;5153983;27;19919;-74
2023/05/07 06:13:40;;;;;;;;;;;12.90;99.90;;;;;;5146199;27;20358;-74
2023/05/07 06:16:06;;;;;;;;;;;12.90;99.90;;;;;;5115122;27;19920;-73
2023/05/07 06:18:32;;;;;;;;;;;12.90;99.90;;;;;;5133493;27;19973;-73
2023/05/07 06:20:57;;;;;;;;;;;13.00;99.90;;;;;;5133452;27;19923;-77
2023/05/07 06:23:23;;;;;;;;;;;13.00;99.90;;;;;;5154506;27;19969;-73
2023/05/07 06:25:50;;;;;;;;;;;13.10;99.90;;;;;;5154850;27;20355;-73
2023/05/07 06:28:15;;;;;;;;;;;13.00;99.90;;;;;;5134826;27;20360;-74
2023/05/07 06:30:41;;;;;;;;;;;13.00;99.90;;;;;;5153539;27;19973;-74
2023/05/07 06:33:06;;;;;;;;;;;13.00;99.90;;;;;;5151180;27;20000;-74
2023/05/07 06:35:32;;;;;;;;;;;13.00;99.90;;;;;;5136079;27;19919;-74
2023/05/07 06:37:58;;;;;;;;;;;13.10;99.90;;;;;;5137150;27;19975;-77
2023/05/07 06:40:23;;;;;;;;;;;13.10;99.90;;;;;;5115296;27;19927;-74
2023/05/07 06:42:49;;;;;;;;;;;13.10;99.90;;;;;;5135026;27;19923;-73
2023/05/07 06:45:14;;;;;;;;;;;13.20;99.90;;;;;;5135521;27;19969;-73
2023/05/07 06:47:40;;;;;;;;;;;13.20;99.90;;;;;;5153551;27;20359;-74
2023/05/07 06:50:06;;;;;;;;;;;13.20;99.90;;;;;;5118447;27;19988;-74
2023/05/07 06:52:31;;;;;;;;;;;13.20;99.90;;;;;;5153405;27;20379;-73
2023/05/07 06:54:57;;;;;;;;;;;13.20;99.90;;;;;;5154339;27;20362;-73
2023/05/07 06:57:23;;;;;;;;;;;13.20;99.90;;;;;;5128674;27;20280;-73
2023/05/07 06:59:49;;;;;;;;;;;13.20;99.90;;;;;;5133553;27;20394;-74
2023/05/07 07:02:14;;;;;;;;;;;13.20;99.90;;;;;;5132243;27;19923;-73
2023/05/07 07:04:41;;;;;;;;;;;13.20;99.90;;;;;;5114884;27;19924;-74
2023/05/07 07:07:07;;;;;;;;;;;13.30;99.90;;;;;;5113889;27;19970;-74
2023/05/07 07:09:33;;;;;;;;;;;13.30;99.90;;;;;;5133316;27;19988;-74
2023/05/07 07:11:58;;;;;;;;;;;13.30;99.90;;;;;;5132291;27;20001;-73
2023/05/07 07:14:24;;;;;;;;;;;13.20;99.90;;;;;;5132514;27;20421;-74
2023/05/07 07:16:49;;;;;;;;;;;13.20;99.90;;;;;;5136185;27;19919;-74
2023/05/07 07:19:15;;;;;;;;;;;13.30;99.90;;;;;;5132018;27;20003;-74
2023/05/07 07:21:41;;;;;;;;;;;13.30;99.90;;;;;;5145067;27;19946;-75
2023/05/07 07:24:07;;;;;;;;;;;13.30;99.90;;;;;;5132441;27;19919;-77
2023/05/07 07:26:32;;;;;;;;;;;13.30;99.90;;;;;;5132181;27;19919;-78
2023/05/07 07:28:58;;;;;;;;;;;13.40;99.90;;;;;;5132653;27;19926;-73
2023/05/07 07:31:26;;;;;;;;;;;13.50;99.90;;;;;;5097156;27;20451;-74
2023/05/07 07:33:52;;;;;;;;;;;13.60;99.90;;;;;;5132231;27;19923;-74
2023/05/07 07:36:17;;;;;;;;;;;13.70;99.90;;;;;;5131533;27;19930;-71
2023/05/07 07:38:43;;;;;;;;;;;13.70;99.90;;;;;;5114363;27;19926;-71
2023/05/07 07:41:09;;;;;;;;;;;13.80;99.90;;;;;;5131644;27;19926;-71
2023/05/07 07:43:35;;;;;;;;;;;13.80;99.90;;;;;;5113950;27;19919;-74
2023/05/07 07:46:01;;;;;;;;;;;13.90;99.90;;;;;;5132658;27;19966;-74
2023/05/07 07:48:26;;;;;;;;;;;14.00;99.90;;;;;;5128663;27;20398;-73
2023/05/07 07:50:52;;;;;;;;;;;14.30;99.90;;;;;;5122187;27;19919;-73
2023/05/07 07:53:18;;;;;;;;;;;14.10;99.90;;;;;;5136352;27;19918;-72
2023/05/07 07:55:43;;;;;;;;;;;14.20;99.90;;;;;;5133352;27;19974;-72
2023/05/07 07:58:09;;;;;;;;;;;14.20;99.90;;;;;;5134196;27;20093;-72
2023/05/07 08:00:35;;;;;;;;;;;14.30;99.90;;;;;;5141398;27;19975;-76
2023/05/07 08:03:02;;;;;;;;;;;14.30;99.90;;;;;;5143926;27;19923;-73
2023/05/07 08:05:28;;;;;;;;;;;14.40;99.90;;;;;;5139461;27;19926;-74
2023/05/07 08:07:54;;;;;;;;;;;14.50;99.90;;;;;;5145699;27;19919;-73
2023/05/07 08:10:21;;;;;;;;;;;14.50;99.90;;;;;;5142308;27;19926;-73
2023/05/07 08:12:50;;;;;;;;;;;14.50;99.90;;;;;;5133158;27;19927;-73
2023/05/07 08:15:15;;;;;;;;;;;14.50;99.90;;;;;;5124712;27;19919;-73
2023/05/07 08:17:41;;;;;;;;;;;14.60;99.90;;;;;;5132882;27;19931;-73
2023/05/07 08:20:07;;;;;;;;;;;14.60;99.90;;;;;;5131911;27;20453;-75
2023/05/07 08:22:34;;;;;;;;;;;14.70;99.90;;;;;;5136098;27;19926;-73
2023/05/07 08:25:00;;;;;;;;;;;14.70;99.90;;;;;;5149147;27;20265;-72
2023/05/07 08:27:25;;;;;;;;;;;14.70;99.90;;;;;;5120485;27;19994;-73
2023/05/07 08:29:51;;;;;;;;;;;14.70;99.90;;;;;;5124264;27;20359;-73
2023/05/07 08:32:16;;;;;;;;;;;14.80;99.90;;;;;;5111614;27;19939;-74
2023/05/07 08:34:42;;;;;;;;;;;14.80;99.90;;;;;;5131901;27;19972;-74
2023/05/07 08:37:08;;;;;;;;;;;14.80;99.90;;;;;;5112756;27;19919;-75
2023/05/07 08:39:33;;;;;;;;;;;14.80;99.90;;;;;;5139026;27;19922;-74
2023/05/07 08:42:00;;;;;;;;;;;14.80;99.90;;;;;;5120822;27;19945;-74
2023/05/07 08:44:27;;;;;;;;;;;14.90;99.90;;;;;;5132498;27;20006;-74
2023/05/07 08:46:54;;;;;;;;;;;15.00;99.90;;;;;;5131266;27;19923;-75
2023/05/07 08:49:20;;;;;;;;;;;15.10;99.90;;;;;;5137904;27;19981;-74
2023/05/07 08:51:46;;;;;;;;;;;15.20;99.90;;;;;;5136488;27;19919;-74
2023/05/07 08:54:12;;;;;;;;;;;15.20;99.90;;;;;;5133202;27;19979;-78
2023/05/07 08:56:39;;;;;;;;;;;15.30;99.90;;;;;;5133481;27;19927;-74
2023/05/07 08:59:05;;;;;;;;;;;15.30;99.90;;;;;;5134797;27;20368;-74
2023/05/07 09:01:30;;;;;;;;;;;15.30;99.90;;;;;;5136246;27;19923;-74
2023/05/07 09:03:57;;;;;;;;;;;15.40;99.90;;;;;;5154959;27;19946;-75
2023/05/07 09:07:03;;;;;;;22.92;12.55;;;15.50;99.90;;;;;;5113522;27;1964379;-71
2023/05/07 09:09:29;;;;;;;22.98;12.73;;;15.60;99.90;;;;;;5148940;27;20399;-72
2023/05/07 09:12:01;;;;;;;21.10;11.75;;;15.80;99.90;;;;;;5129699;27;20043;-71
2023/05/07 09:14:27;;;;;;;23.55;11.70;;;16.00;99.90;;;;;;5148558;27;20133;-72
2023/05/07 09:16:53;;;;;;;23.92;12.27;;;16.10;99.90;;;;;;5149151;27;20567;-72
2023/05/07 09:19:26;;;;;;;;;;;16.10;99.90;;;;;;5147171;27;20472;-71
2023/05/07 09:22:06;;;;;;;23.20;11.73;;;16.10;99.90;;;;;;5164570;27;20000;-73
2023/05/07 09:24:37;;;;;;;22.17;11.18;;;16.20;99.90;;;;;;5150602;27;20426;-73
2023/05/07 09:27:04;;;;;;;20.23;11.32;;;16.30;99.90;;;;;;5127101;27;20042;-72
2023/05/07 09:29:35;;;;;;;22.77;11.93;;;16.50;99.90;;;;;;5130165;27;20089;-73
2023/05/07 09:32:02;;;;;;;20.30;11.27;;;16.60;99.90;;;;;;5160510;27;20117;-73
2023/05/07 09:34:29;;;;;;;23.35;12.00;;;16.70;99.90;;;;;;5161096;27;20534;-73
2023/05/07 09:36:56;;;;;;;21.25;11.02;;;16.70;99.90;;;;;;5146750;27;20047;-73
2023/05/07 09:39:23;;;;;;;20.52;11.13;;;16.80;99.90;;;;;;5145332;27;20055;-66
2023/05/07 09:41:51;;;;;;;21.95;12.13;;;17.00;99.90;;;;;;5156215;27;20408;-66
2023/05/07 09:44:17;;;;;;;22.05;12.70;;;17.10;99.90;;;;;;5148403;27;20051;-66
2023/05/07 09:46:44;;;;;;;19.30;10.48;;;17.10;99.90;;;;;;5160835;27;20078;-68
2023/05/07 09:49:22;;;;;;;21.30;11.77;;;17.20;99.90;;;;;;5146749;27;20051;-67
2023/05/07 09:51:50;;;;;;;18.33;10.35;;;17.30;99.90;;;;;;5150161;27;20523;-67
2023/05/07 09:54:17;;;;;;;20.30;10.57;;;17.40;99.90;;;;;;5164861;27;20070;-69
2023/05/07 09:56:47;;;;;;;19.77;10.88;;;17.50;99.90;;;;;;5158200;27;20042;-72
2023/05/07 09:59:15;;;;;;;18.95;11.10;;;17.50;99.90;;;;;;5149404;27;20047;-70
2023/05/07 10:01:42;;;;;;;19.52;11.43;;;17.60;99.90;;;;;;5153409;27;20053;-70
2023/05/07 10:04:09;;;;;;;19.75;10.05;;;17.60;99.90;;;;;;5166363;27;20568;-70
2023/05/07 10:06:35;;;;;;;18.52;10.88;;;17.70;99.90;;;;;;5165807;27;20360;-72
2023/05/07 10:09:02;;;;;;;18.27;10.18;;;17.90;99.90;;;;;;5167555;27;20050;-70
2023/05/07 10:11:28;;;;;;;19.25;10.27;;;17.90;99.90;;;;;;5137981;27;20053;-70
2023/05/07 10:13:54;;;;;;;;;;;18.00;99.90;;;;;;5130066;27;20408;-71
2023/05/07 10:16:21;;;;;;;24.05;11.30;;;17.90;99.90;;;;;;5158739;27;19923;-69
2023/05/07 10:18:48;;;;;;;17.77;10.65;;;17.90;99.90;;;;;;5131376;27;20078;-71
2023/05/07 10:21:21;;;;;;;17.77;9.75;;;17.90;99.90;;;;;;5143234;27;20429;-70
2023/05/07 10:23:53;;;;;;;19.75;10.50;;;18.00;99.90;;;;;;5151729;27;20050;-74
2023/05/07 10:26:21;;;;;;;17.58;10.15;;;18.10;99.90;;;;;;5119113;27;20121;-74
2023/05/07 10:28:50;;;;;;;19.77;10.93;;;18.30;99.90;;;;;;5136374;27;20057;-70
2023/05/07 10:31:43;;;;;;;17.95;10.07;;;18.40;99.90;;;;;;5137258;27;20046;-69
2023/05/07 10:34:15;;;;;;;19.55;10.23;;;18.50;99.90;;;;;;5141401;27;20095;-70
2023/05/07 10:36:42;;;;;;;17.70;10.07;;;18.60;99.90;;;;;;5153495;27;20090;-72
2023/05/07 10:39:07;;;;;;;17.70;10.38;;;18.70;99.90;;;;;;5142193;27;20049;-70
2023/05/07 10:41:33;;;;;;;;;;;18.80;99.90;;;;;;5136681;27;20054;-70
2023/05/07 10:44:01;;;;;;;18.52;10.20;;;18.90;99.90;;;;;;5127320;27;19920;-70
2023/05/07 10:46:27;;;;;;;19.17;11.00;;;19.00;99.90;;;;;;5151726;27;20066;-75
2023/05/07 10:49:08;;;;;;;;;;;19.20;99.90;;;;;;5141218;27;20151;-77
2023/05/07 10:51:35;;;;;;;18.77;10.13;;;19.30;99.90;;;;;;5118280;27;19926;-73
2023/05/07 10:54:09;;;;;;;18.40;10.35;;;19.60;99.90;;;;;;5148095;27;20126;-73
2023/05/07 10:56:37;;;;;;;17.60;10.55;;;19.80;99.90;;;;;;5152781;27;20043;-73
2023/05/07 10:59:26;;;;;;;17.40;9.73;;;20.00;99.90;;;;;;5120222;27;20483;-74
2023/05/07 11:01:58;;;;;;;16.92;9.55;;;20.20;99.90;;;;;;5125837;27;20051;-74
2023/05/07 11:04:27;;;;;;;15.48;9.13;;;20.30;99.90;;;;;;5144843;27;20077;-71
2023/05/07 11:07:11;;;;;;;16.80;10.27;;;20.40;99.90;;;;;;5140553;27;20086;-75
2023/05/07 11:09:52;;;;;;;16.10;9.07;;;20.60;99.90;;;;;;5153540;27;20107;-74
2023/05/07 11:12:36;;;;;;;17.92;9.77;;;20.80;99.90;;;;;;5153139;27;20122;-75
2023/05/07 11:15:06;;;;;;;15.18;8.90;;;21.10;99.90;;;;;;5140956;27;20058;-75
2023/05/07 11:17:34;;;;;;;17.38;9.00;;;21.30;99.90;;;;;;5152623;27;20074;-77
2023/05/07 11:20:04;;;;;;;17.73;9.93;;;21.50;99.90;;;;;;5153936;27;20051;-74
2023/05/07 11:22:33;;;;;;;15.90;9.38;;;21.80;99.90;;;;;;5128773;27;20077;-76
2023/05/07 11:25:06;;;;;;;16.63;9.85;;;22.10;99.90;;;;;;5139762;27;20114;-74
2023/05/07 11:27:32;;;;;;;19.08;9.50;;;22.50;99.90;;;;;;5152743;27;20047;-77
2023/05/07 11:29:58;;;;;;;15.23;9.35;;;23.10;99.90;;;;;;5148995;27;20047;-74
2023/05/07 11:32:26;;;;;;;14.65;8.45;;;23.60;99.90;;;;;;5131192;27;20063;-74
2023/05/07 11:34:53;;;;;;;16.58;9.07;;;24.00;99.90;;;;;;5134916;27;20054;-75
2023/05/07 11:37:20;;;;;;;13.95;8.90;;;24.60;99.90;;;;;;5132058;27;20054;-76
2023/05/07 11:39:45;;;;;;;15.23;9.10;;;25.00;99.90;;;;;;5132381;27;20051;-75
2023/05/07 11:42:38;;;;;;;16.05;10.23;;;25.40;99.90;;;;;;5132048;27;20047;-75
2023/05/07 11:45:05;;;;;;;14.30;8.98;;;25.70;92.70;;;;;;5130557;27;20058;-76
2023/05/07 11:47:32;;;;;;;13.23;8.05;;;25.80;99.90;;;;;;5132353;27;20121;-75
2023/05/07 11:50:07;;;;;;;13.70;8.68;;;26.10;99.40;;;;;;5132364;27;20167;-76
2023/05/07 11:52:33;;;;;;;12.75;8.68;;;26.30;94.20;;;;;;5132181;27;20039;-77
2023/05/07 11:54:59;;;;;;;14.13;8.55;;;26.60;94.50;;;;;;5131884;27;20046;-76
2023/05/07 11:57:27;;;;;;;13.55;8.65;;;26.60;92.40;;;;;;5130307;27;20043;-77
2023/05/07 11:59:56;;;;;;;13.98;8.18;;;26.70;91.20;;;;;;5132579;27;20448;-77
2023/05/07 12:02:22;;;;;;;16.63;8.85;;;26.70;88.70;;;;;;5152919;27;20097;-77
2023/05/07 12:04:47;;;;;;;15.32;8.52;;;26.50;84.60;;;;;;5152424;27;20050;-75
2023/05/07 12:07:16;;;;;;;13.95;8.48;;;26.10;81.70;;;;;;5152621;27;20050;-78
2023/05/07 12:09:43;;;;;;;13.90;8.93;;;25.60;81.30;;;;;;5135532;27;20108;-79
2023/05/07 12:12:09;;;;;;;15.32;8.93;;;25.40;83.30;;;;;;5131390;27;20097;-78
2023/05/07 12:14:42;;;;;;;14.43;9.18;;;25.30;82.70;;;;;;5149928;27;20043;-78
2023/05/07 12:17:08;;;;;;;13.90;9.52;;;25.20;79.50;;;;;;5151991;27;20130;-72
2023/05/07 12:19:35;;;;;;;13.95;9.35;;;25.20;81.80;;;;;;5134438;27;20050;-72
2023/05/07 12:22:03;;;;;;;12.95;9.00;;;26.10;83.20;;;;;;5126948;27;20126;-71
2023/05/07 12:24:29;;;;;;;12.57;8.40;;;27.40;78.60;;;;;;5132273;27;20050;-72
2023/05/07 12:26:54;;;;;;;12.13;8.30;;;28.80;72.70;;;;;;5130726;27;20491;-71
2023/05/07 12:29:23;;;;;;;12.65;7.75;;;29.90;68.60;;;;;;5132018;27;20254;-71
2023/05/07 12:31:50;;;;;;;11.65;8.25;;;30.40;65.80;;;;;;5113484;27;20050;-71
2023/05/07 12:34:16;;;;;;;11.07;7.93;;;30.90;65.30;;;;;;5131031;27;20161;-71
2023/05/07 12:36:42;;;;;;;11.02;8.15;;;31.30;62.70;;;;;;5130912;27;20540;-72
2023/05/07 12:39:08;;;;;;;12.05;8.45;;;31.60;61.20;;;;;;5131922;27;20047;-71
2023/05/07 12:41:58;;;;;;;11.68;7.82;;;32.00;59.60;;;;;;5130596;27;20395;-71
2023/05/07 12:44:28;;;;;;;12.05;7.43;;;32.60;59.10;;;;;;5125308;27;20078;-74
2023/05/07 12:46:54;;;;;;;15.10;7.40;;;32.80;57.00;;;;;;5151910;27;20043;-79
2023/05/07 12:49:20;;;;;;;11.30;7.70;;;32.20;56.20;;;;;;5115829;27;20046;-80
2023/05/07 12:51:48;;;;;;;11.20;7.60;;;31.20;56.50;;;;;;5130664;27;20047;-80
2023/05/07 12:54:27;;;;;;;10.88;7.15;;;30.20;57.10;;;;;;5114494;28;20051;-74
2023/05/07 12:57:04;;;;;;;14.02;8.27;;;29.30;57.80;;;;;;5130366;27;20580;-76
2023/05/07 12:59:37;;;;;;;12.60;7.95;;;28.30;58.40;;;;;;5141274;27;20483;-77
2023/05/07 13:02:02;;;;;;;12.40;8.57;;;27.20;59.50;;;;;;5131265;27;20055;-76
2023/05/07 13:30:10;;;;;;;12.93;8.75;;;;;;;;;;5124147;27;1956470;-72
2023/05/07 13:32:36;;;;;;;12.98;7.72;;;;;;;;;;5170224;27;20050;-73
2023/05/07 13:35:03;;;;;;;15.40;8.35;;;;;;;;;;5170039;27;20093;-73
2023/05/07 13:37:29;;;;;;;11.88;7.28;;;;;;;;;;5149451;27;20078;-71
2023/05/07 13:39:55;;;;;;;10.85;7.00;;;;;;;;;;5131039;27;20055;-72
2023/05/07 13:42:21;;;;;;;11.00;7.07;;;;;;;;;;5168063;27;20054;-72
2023/05/07 13:44:47;;;;;;;13.65;7.50;;;;;;;;;;5153216;27;20054;-74
2023/05/07 13:47:13;;;;;;;12.18;8.07;;;;;;;;;;5129135;27;20115;-70
2023/05/07 13:49:39;;;;;;;12.23;7.25;;;;;;;;;;5148681;27;20644;-68
2023/05/07 13:52:05;;;;;;;12.10;7.35;;;;;;;;;;5129470;27;20047;-70
2023/05/07 13:54:31;;;;;;;12.65;7.32;;;;;;;;;;5149149;27;20082;-72
2023/05/07 13:56:57;;;;;;;10.10;7.45;;;;;;;;;;5160763;27;20050;-75
2023/05/07 13:59:24;;;;;;;11.43;7.53;;;;;;;;;;5129066;27;20047;-73
2023/05/07 14:01:50;;;;;;;11.45;7.13;;;;;;;;;;5148444;27;20120;-72
2023/05/07 14:04:16;;;;;;;10.30;7.00;;;;;;;;;;5148108;27;20055;-68
2023/05/07 14:06:42;;;;;;;11.45;7.00;;;;;;;;;;5129565;27;20122;-73
2023/05/07 14:09:08;;;;;;;10.73;7.05;;;;;;;;;;5129983;27;20043;-73
2023/05/07 14:11:34;;;;;;;11.95;7.47;;;;;;;;;;5130271;27;20062;-73